createdAt,value
2023-03-23T15:58:39.939Z,32.90
2023-03-23T16:01:21.001Z,33.20
2023-03-23T16:03:58.409Z,33.30
2023-03-23T16:06:27.715Z,33.70
2023-03-23T16:08:56.602Z,33.90
2023-03-23T16:11:26.725Z,34.20
2023-03-23T16:13:53.832Z,34.40
2023-03-23T16:16:29.377Z,34.70
2023-03-23T16:18:56.789Z,34.80
2023-03-23T16:21:23.895Z,35.60
2023-03-23T16:23:50.970Z,35.10
2023-03-23T16:26:18.958Z,35.30
2023-03-23T16:28:46.237Z,35.50
2023-03-23T16:31:13.483Z,36.00
2023-03-23T16:33:40.560Z,36.10
2023-03-23T16:36:08.122Z,36.10
2023-03-23T16:38:49.766Z,36.40
2023-03-23T16:41:18.673Z,37.40
2023-03-23T16:43:46.059Z,38.10
2023-03-23T16:46:14.389Z,39.40
2023-03-23T16:48:41.709Z,40.50
2023-03-23T16:51:08.909Z,41.40
2023-03-23T16:53:36.951Z,41.80
2023-03-23T16:56:04.836Z,41.80
2023-03-23T16:58:32.000Z,41.50
2023-03-23T17:00:59.191Z,41.10
2023-03-23T17:03:26.364Z,40.40
2023-03-23T17:05:53.514Z,39.90
2023-03-23T17:08:21.358Z,39.50
2023-03-23T17:10:49.275Z,39.20
2023-03-23T17:13:17.575Z,38.90
2023-03-23T17:15:47.388Z,38.60
2023-03-23T17:18:16.610Z,38.50
2023-03-23T17:20:44.533Z,38.40
2023-03-23T17:23:12.246Z,38.40
2023-03-23T17:25:39.662Z,38.30
2023-03-23T17:28:07.121Z,38.30
2023-03-23T17:30:35.458Z,38.30
2023-03-23T17:33:02.877Z,38.30
2023-03-23T17:35:30.195Z,38.30
2023-03-23T17:37:57.528Z,38.30
2023-03-23T17:40:24.685Z,38.40
2023-03-23T17:42:51.765Z,38.40
2023-03-23T17:45:19.015Z,38.40
2023-03-23T17:47:46.132Z,38.30
2023-03-23T17:50:13.784Z,38.30
2023-03-23T17:52:41.887Z,38.30
2023-03-23T17:55:09.401Z,38.40
2023-03-23T17:57:36.643Z,38.40
2023-03-23T18:00:08.039Z,38.50
2023-03-23T18:02:38.820Z,38.60
2023-03-23T18:05:08.943Z,38.80
2023-03-23T18:07:36.973Z,39.00
2023-03-23T18:10:11.969Z,39.10
2023-03-23T18:12:41.561Z,39.30
2023-03-23T18:15:10.591Z,39.40
2023-03-23T18:17:38.329Z,39.40
2023-03-23T18:20:07.629Z,39.40
2023-03-23T18:22:35.035Z,39.40
2023-03-23T18:25:03.027Z,39.40
2023-03-23T18:27:30.080Z,39.40
2023-03-23T18:29:57.198Z,39.40
2023-03-23T18:32:24.516Z,39.40
2023-03-23T18:34:51.620Z,39.50
2023-03-23T18:37:20.491Z,39.30
2023-03-23T18:39:47.809Z,39.20
2023-03-23T18:42:14.901Z,39.20
2023-03-23T18:44:42.000Z,39.20
2023-03-23T18:47:09.159Z,39.10
2023-03-23T18:49:36.488Z,39.00
2023-03-23T18:52:04.244Z,39.00
2023-03-23T18:54:34.937Z,38.90
2023-03-23T18:57:03.053Z,38.90
2023-03-23T18:59:30.703Z,38.80
2023-03-23T19:01:58.314Z,38.70
2023-03-23T19:04:25.825Z,38.70
2023-03-23T19:06:52.920Z,38.70
2023-03-23T19:09:20.072Z,38.60
2023-03-23T19:11:47.598Z,38.60
2023-03-23T19:14:14.899Z,38.50
2023-03-23T19:16:42.323Z,38.50
2023-03-23T19:19:09.657Z,38.50
2023-03-23T19:21:39.820Z,38.50
2023-03-23T19:24:08.230Z,38.50
2023-03-23T19:26:38.441Z,38.40
2023-03-23T19:29:26.217Z,38.40
2023-03-23T19:31:55.510Z,38.40
2023-03-23T19:34:24.102Z,38.40
2023-03-23T19:36:56.391Z,38.40
2023-03-23T19:39:31.458Z,38.40
2023-03-23T19:41:58.989Z,38.40
2023-03-23T19:44:26.511Z,38.40
2023-03-23T19:46:54.480Z,38.40
2023-03-23T19:49:21.941Z,38.40
2023-03-23T19:51:49.107Z,38.30
2023-03-23T19:54:16.156Z,38.30
2023-03-23T19:56:43.528Z,38.30
2023-03-23T19:59:17.351Z,38.30
2023-03-23T20:01:44.617Z,38.30
2023-03-23T20:04:12.410Z,38.20
2023-03-23T20:06:39.527Z,38.30
2023-03-23T20:09:07.493Z,38.20
2023-03-23T20:11:34.701Z,38.20
2023-03-23T20:14:05.400Z,38.20
2023-03-23T20:16:33.081Z,38.20
2023-03-23T20:19:00.723Z,38.20
2023-03-23T20:21:28.315Z,38.20
2023-03-23T20:23:57.404Z,38.20
2023-03-23T20:26:31.391Z,38.20
2023-03-23T20:28:59.137Z,38.20
2023-03-23T20:31:29.395Z,38.10
2023-03-23T20:34:01.957Z,38.10
2023-03-23T20:36:35.232Z,38.10
2023-03-23T20:39:05.675Z,38.00
2023-03-23T20:41:36.137Z,38.00
2023-03-23T20:44:04.618Z,38.00
2023-03-23T20:46:31.855Z,38.00
2023-03-23T20:48:59.107Z,38.00
2023-03-23T20:51:26.362Z,38.00
2023-03-23T20:53:54.877Z,37.90
2023-03-23T20:56:22.525Z,37.90
2023-03-23T20:58:49.580Z,38.00
2023-03-23T21:01:16.864Z,37.90
2023-03-23T21:03:44.195Z,37.90
2023-03-23T21:06:12.101Z,37.90
2023-03-23T21:08:40.914Z,37.90
2023-03-23T21:11:13.825Z,37.90
2023-03-23T21:13:40.899Z,37.90
2023-03-23T21:16:08.523Z,37.90
2023-03-23T21:18:35.901Z,37.90
2023-03-23T21:21:09.240Z,38.00
2023-03-23T21:23:38.483Z,37.90
2023-03-23T21:26:09.696Z,37.90
2023-03-23T21:28:36.877Z,38.00
2023-03-23T21:31:06.609Z,38.00
2023-03-23T21:33:34.382Z,38.00
2023-03-23T21:36:01.601Z,38.00
2023-03-23T21:38:29.419Z,37.90
2023-03-23T21:40:58.917Z,38.00
2023-03-23T21:43:27.839Z,38.00
2023-03-23T21:46:03.071Z,38.00
2023-03-23T21:48:30.549Z,38.00
2023-03-23T21:50:57.671Z,38.00
2023-03-23T21:53:25.667Z,38.00
2023-03-23T21:55:54.631Z,38.00
2023-03-23T21:58:24.609Z,38.00
2023-03-23T22:00:54.302Z,38.00
2023-03-23T22:03:23.692Z,38.00
2023-03-23T22:05:54.638Z,37.90
2023-03-23T22:08:27.609Z,38.00
2023-03-23T22:11:05.287Z,38.00
2023-03-23T22:13:34.148Z,38.00
2023-03-23T22:16:02.645Z,37.90
2023-03-23T22:18:30.189Z,38.00
2023-03-23T22:20:59.140Z,38.00
2023-03-23T22:23:27.175Z,38.00
2023-03-23T22:25:55.146Z,38.00
2023-03-23T22:28:23.081Z,38.00
2023-03-23T22:30:50.202Z,37.90
2023-03-23T22:33:17.871Z,37.90
2023-03-23T22:35:47.405Z,37.90
2023-03-23T22:38:15.094Z,37.90
2023-03-23T22:40:42.906Z,37.90
2023-03-23T22:43:10.211Z,37.80
2023-03-23T22:45:37.442Z,37.80
2023-03-23T22:48:07.986Z,37.70
2023-03-23T22:50:35.529Z,37.70
2023-03-23T22:53:02.668Z,37.70
2023-03-23T22:55:29.795Z,37.70
2023-03-23T22:57:56.965Z,37.70
2023-03-23T23:00:24.357Z,37.60
2023-03-23T23:02:51.508Z,37.60
2023-03-23T23:05:18.852Z,37.60
2023-03-23T23:07:46.027Z,37.60
2023-03-23T23:10:13.131Z,37.60
2023-03-23T23:12:42.532Z,37.60
2023-03-23T23:15:13.022Z,37.60
2023-03-23T23:17:40.438Z,37.60
2023-03-23T23:20:13.043Z,37.60
2023-03-23T23:22:40.973Z,37.60
2023-03-23T23:25:09.371Z,37.60
2023-03-23T23:27:36.682Z,37.60
2023-03-23T23:30:06.723Z,37.60
2023-03-23T23:32:34.090Z,37.60
2023-03-23T23:35:01.662Z,37.60
2023-03-23T23:37:28.884Z,37.70
2023-03-23T23:39:56.119Z,37.60
2023-03-23T23:42:23.357Z,38.20
2023-03-23T23:44:50.501Z,37.60
2023-03-23T23:47:17.599Z,37.60
2023-03-23T23:49:44.833Z,37.60
2023-03-23T23:52:12.034Z,37.70
2023-03-23T23:54:43.660Z,37.60
2023-03-23T23:57:10.893Z,37.60
2023-03-23T23:59:38.095Z,37.60
